Time;durP1;ratioP1;P1;durP2;ratioP2;P2;SDS_P1;SDS_P2;PMS_P1;PMS_P2;Temp;Humidity;BMP_temperature;BMP_pressure;BME280_temperature;BME280_humidity;BME280_pressure;Samples;Min_cycle;Max_cycle;Signal;HPM_P1;HPM_P2
2021/10/12 00:00:28;;;;;;;45.00001;27.9;;;;;;;8.6;62.46875;95772.22;;;;
2021/10/12 00:01:28;;;;;;;45.00001;27.9;;;;;;;8.6;62.46875;95772.22;;;;
2021/10/12 00:02:29;;;;;;;45.00001;27.9;;;;;;;8.6;62.46875;95772.22;;;;
2021/10/12 00:03:30;;;;;;;45.00001;27.9;;;;;;;8.6;62.46875;95772.22;;;;
2021/10/12 00:04:30;;;;;;;45.00001;27.9;;;;;;;8.6;62.46875;95772.22;;;;
2021/10/12 00:05:31;;;;;;;45.00001;27.9;;;;;;;8.6;62.46875;95772.22;;;;
2021/10/12 00:06:31;;;;;;;45.00001;27.9;;;;;;;8.6;62.46875;95772.22;;;;
2021/10/12 00:07:32;;;;;;;45.00001;27.9;;;;;;;8.6;62.46875;95772.22;;;;
2021/10/12 00:08:33;;;;;;;45.00001;27.9;;;;;;;8.6;62.46875;95772.22;;;;
2021/10/12 00:09:34;;;;;;;45.00001;27.9;;;;;;;8.6;62.46875;95772.22;;;;
2021/10/12 00:10:35;;;;;;;45.00001;27.9;;;;;;;8.6;62.46875;95772.22;;;;
2021/10/12 00:11:35;;;;;;;45.35;27.85;;;;;;;8.69;62.89844;95770.95;;;;
2021/10/12 00:12:36;;;;;;;45.35;27.85;;;;;;;8.69;62.89844;95770.95;;;;
2021/10/12 00:13:36;;;;;;;45.35;27.85;;;;;;;8.69;62.89844;95770.95;;;;
2021/10/12 00:14:37;;;;;;;45.35;27.85;;;;;;;8.69;62.89844;95770.95;;;;
2021/10/12 00:15:37;;;;;;;45.35;27.85;;;;;;;8.69;62.89844;95770.95;;;;
2021/10/12 00:16:38;;;;;;;45.35;27.85;;;;;;;8.69;62.89844;95770.95;;;;
2021/10/12 00:17:38;;;;;;;45.35;27.85;;;;;;;8.69;62.89844;95770.95;;;;
2021/10/12 00:18:39;;;;;;;45.35;27.85;;;;;;;8.69;62.89844;95770.95;;;;
2021/10/12 00:19:40;;;;;;;45.35;27.85;;;;;;;8.69;62.89844;95770.95;;;;
2021/10/12 00:20:41;;;;;;;45.35;27.85;;;;;;;8.69;62.89844;95770.95;;;;
2021/10/12 00:21:41;;;;;;;44.85;27.7;;;;;;;8.67;63.33398;95774.38;;;;
2021/10/12 00:22:42;;;;;;;44.85;27.7;;;;;;;8.67;63.33398;95774.38;;;;
2021/10/12 00:23:43;;;;;;;44.85;27.7;;;;;;;8.67;63.33398;95774.38;;;;
2021/10/12 00:24:43;;;;;;;44.85;27.7;;;;;;;8.67;63.33398;95774.38;;;;
2021/10/12 00:25:44;;;;;;;44.85;27.7;;;;;;;8.67;63.33398;95774.38;;;;
2021/10/12 00:26:44;;;;;;;44.85;27.7;;;;;;;8.67;63.33398;95774.38;;;;
2021/10/12 00:27:45;;;;;;;44.85;27.7;;;;;;;8.67;63.33398;95774.38;;;;
2021/10/12 00:28:45;;;;;;;44.85;27.7;;;;;;;8.67;63.33398;95774.38;;;;
2021/10/12 00:29:46;;;;;;;44.85;27.7;;;;;;;8.67;63.33398;95774.38;;;;
2021/10/12 00:30:46;;;;;;;44.85;27.7;;;;;;;8.67;63.33398;95774.38;;;;
2021/10/12 00:31:47;;;;;;;44.85;27.7;;;;;;;8.67;63.33398;95774.38;;;;
2021/10/12 00:32:47;;;;;;;45.6;28.6;;;;;;;8.7;63.85254;95788.65;;;;
2021/10/12 00:33:48;;;;;;;45.6;28.6;;;;;;;8.7;63.85254;95788.65;;;;
2021/10/12 00:34:48;;;;;;;45.6;28.6;;;;;;;8.7;63.85254;95788.65;;;;
2021/10/12 00:35:49;;;;;;;45.6;28.6;;;;;;;8.7;63.85254;95788.65;;;;
2021/10/12 00:36:49;;;;;;;45.6;28.6;;;;;;;8.7;63.85254;95788.65;;;;
2021/10/12 00:37:50;;;;;;;45.6;28.6;;;;;;;8.7;63.85254;95788.65;;;;
2021/10/12 00:38:51;;;;;;;45.6;28.6;;;;;;;8.7;63.85254;95788.65;;;;
2021/10/12 00:39:51;;;;;;;45.6;28.6;;;;;;;8.7;63.85254;95788.65;;;;
2021/10/12 00:40:52;;;;;;;45.6;28.6;;;;;;;8.7;63.85254;95788.65;;;;
2021/10/12 00:41:53;;;;;;;45.6;28.6;;;;;;;8.7;63.85254;95788.65;;;;
2021/10/12 00:42:53;;;;;;;49.40001;30.8;;;;;;;8.63;64.48047;95779.86;;;;
2021/10/12 00:43:54;;;;;;;49.40001;30.8;;;;;;;8.63;64.48047;95779.86;;;;
2021/10/12 00:44:54;;;;;;;49.40001;30.8;;;;;;;8.63;64.48047;95779.86;;;;
2021/10/12 00:45:55;;;;;;;49.40001;30.8;;;;;;;8.63;64.48047;95779.86;;;;
2021/10/12 00:46:59;;;;;;;49.40001;30.8;;;;;;;8.63;64.48047;95779.86;;;;
2021/10/12 00:48:00;;;;;;;49.40001;30.8;;;;;;;8.63;64.48047;95779.86;;;;
2021/10/12 00:49:03;;;;;;;49.40001;30.8;;;;;;;8.63;64.48047;95779.86;;;;
2021/10/12 00:50:03;;;;;;;49.40001;30.8;;;;;;;8.63;64.48047;95779.86;;;;
2021/10/12 00:51:06;;;;;;;49.40001;30.8;;;;;;;8.63;64.48047;95779.86;;;;
2021/10/12 00:52:06;;;;;;;49.40001;30.8;;;;;;;8.63;64.48047;95779.86;;;;
2021/10/12 00:53:07;;;;;;;49.40001;30.8;;;;;;;8.63;64.48047;95779.86;;;;
2021/10/12 00:54:07;;;;;;;47.25;28.65;;;;;;;8.54;65.15137;95771.71;;;;
2021/10/12 00:55:08;;;;;;;47.25;28.65;;;;;;;8.54;65.15137;95771.71;;;;
2021/10/12 00:56:09;;;;;;;47.25;28.65;;;;;;;8.54;65.15137;95771.71;;;;
2021/10/12 00:57:10;;;;;;;47.25;28.65;;;;;;;8.54;65.15137;95771.71;;;;
2021/10/12 00:58:13;;;;;;;47.25;28.65;;;;;;;8.54;65.15137;95771.71;;;;
2021/10/12 00:59:15;;;;;;;47.25;28.65;;;;;;;8.54;65.15137;95771.71;;;;
2021/10/12 01:00:16;;;;;;;47.25;28.65;;;;;;;8.54;65.15137;95771.71;;;;
2021/10/12 01:01:16;;;;;;;47.25;28.65;;;;;;;8.54;65.15137;95771.71;;;;
2021/10/12 01:02:17;;;;;;;47.25;28.65;;;;;;;8.54;65.15137;95771.71;;;;
2021/10/12 01:03:18;;;;;;;47.25;28.65;;;;;;;8.54;65.15137;95771.71;;;;
2021/10/12 01:04:18;;;;;;;46.2;27.75;;;;;;;8.47;65.62109;95773.6;;;;
2021/10/12 01:05:19;;;;;;;46.2;27.75;;;;;;;8.47;65.62109;95773.6;;;;
2021/10/12 01:06:19;;;;;;;46.2;27.75;;;;;;;8.47;65.62109;95773.6;;;;
2021/10/12 01:07:20;;;;;;;46.2;27.75;;;;;;;8.47;65.62109;95773.6;;;;
2021/10/12 01:08:20;;;;;;;46.2;27.75;;;;;;;8.47;65.62109;95773.6;;;;
2021/10/12 01:09:21;;;;;;;46.2;27.75;;;;;;;8.47;65.62109;95773.6;;;;
2021/10/12 01:10:22;;;;;;;46.2;27.75;;;;;;;8.47;65.62109;95773.6;;;;
2021/10/12 01:11:23;;;;;;;46.2;27.75;;;;;;;8.47;65.62109;95773.6;;;;
2021/10/12 01:12:24;;;;;;;46.2;27.75;;;;;;;8.47;65.62109;95773.6;;;;
2021/10/12 01:13:24;;;;;;;46.2;27.75;;;;;;;8.47;65.62109;95773.6;;;;
2021/10/12 01:14:26;;;;;;;46.2;27.75;;;;;;;8.47;65.62109;95773.6;;;;
2021/10/12 01:15:26;;;;;;;49.49999;28.25;;;;;;;8.46;65.9834;95764.69;;;;
2021/10/12 01:16:27;;;;;;;49.49999;28.25;;;;;;;8.46;65.9834;95764.69;;;;
2021/10/12 01:17:28;;;;;;;49.49999;28.25;;;;;;;8.46;65.9834;95764.69;;;;
2021/10/12 01:18:28;;;;;;;49.49999;28.25;;;;;;;8.46;65.9834;95764.69;;;;
2021/10/12 01:19:29;;;;;;;49.49999;28.25;;;;;;;8.46;65.9834;95764.69;;;;
2021/10/12 01:20:30;;;;;;;49.49999;28.25;;;;;;;8.46;65.9834;95764.69;;;;
2021/10/12 01:21:36;;;;;;;49.49999;28.25;;;;;;;8.46;65.9834;95764.69;;;;
2021/10/12 01:22:40;;;;;;;49.49999;28.25;;;;;;;8.46;65.9834;95764.69;;;;
2021/10/12 01:23:41;;;;;;;49.49999;28.25;;;;;;;8.46;65.9834;95764.69;;;;
2021/10/12 01:24:42;;;;;;;49.49999;28.25;;;;;;;8.46;65.9834;95764.69;;;;
2021/10/12 01:25:42;;;;;;;47.25;27.5;;;;;;;8.37;66.36523;95756.95;;;;
2021/10/12 01:26:43;;;;;;;47.25;27.5;;;;;;;8.37;66.36523;95756.95;;;;
2021/10/12 01:27:45;;;;;;;47.25;27.5;;;;;;;8.37;66.36523;95756.95;;;;
2021/10/12 01:28:45;;;;;;;47.25;27.5;;;;;;;8.37;66.36523;95756.95;;;;
2021/10/12 01:29:46;;;;;;;47.25;27.5;;;;;;;8.37;66.36523;95756.95;;;;
2021/10/12 01:30:47;;;;;;;47.25;27.5;;;;;;;8.37;66.36523;95756.95;;;;
2021/10/12 01:31:47;;;;;;;47.25;27.5;;;;;;;8.37;66.36523;95756.95;;;;
2021/10/12 01:32:48;;;;;;;47.25;27.5;;;;;;;8.37;66.36523;95756.95;;;;
2021/10/12 01:33:48;;;;;;;47.25;27.5;;;;;;;8.37;66.36523;95756.95;;;;
2021/10/12 01:34:49;;;;;;;47.25;27.5;;;;;;;8.37;66.36523;95756.95;;;;
2021/10/12 01:35:51;;;;;;;47.25;27.5;;;;;;;8.37;66.36523;95756.95;;;;
2021/10/12 01:36:52;;;;;;;47.65;28.35;;;;;;;8.34;66.86328;95731.83;;;;
2021/10/12 01:37:53;;;;;;;47.65;28.35;;;;;;;8.34;66.86328;95731.83;;;;
2021/10/12 01:38:53;;;;;;;47.65;28.35;;;;;;;8.34;66.86328;95731.83;;;;
2021/10/12 01:39:54;;;;;;;47.65;28.35;;;;;;;8.34;66.86328;95731.83;;;;
2021/10/12 01:40:54;;;;;;;47.65;28.35;;;;;;;8.34;66.86328;95731.83;;;;
2021/10/12 01:41:55;;;;;;;47.65;28.35;;;;;;;8.34;66.86328;95731.83;;;;
2021/10/12 01:42:56;;;;;;;47.65;28.35;;;;;;;8.34;66.86328;95731.83;;;;
2021/10/12 01:43:57;;;;;;;47.65;28.35;;;;;;;8.34;66.86328;95731.83;;;;
2021/10/12 01:44:57;;;;;;;47.65;28.35;;;;;;;8.34;66.86328;95731.83;;;;
2021/10/12 01:45:58;;;;;;;47.65;28.35;;;;;;;8.34;66.86328;95731.83;;;;
2021/10/12 01:47:00;;;;;;;47.65;28.35;;;;;;;8.34;66.86328;95731.83;;;;
2021/10/12 01:48:00;;;;;;;47.65;28.35;;;;;;;8.34;66.86328;95731.83;;;;
2021/10/12 01:49:01;;;;;;;47.65;28.35;;;;;;;8.34;66.86328;95731.83;;;;
2021/10/12 01:50:01;;;;;;;47.65;28.35;;;;;;;8.34;66.86328;95731.83;;;;
2021/10/12 01:51:03;;;;;;;47.65;28.35;;;;;;;8.34;66.86328;95731.83;;;;
2021/10/12 01:52:05;;;;;;;47.65;28.35;;;;;;;8.34;66.86328;95731.83;;;;
2021/10/12 01:53:10;;;;;;;47.65;28.35;;;;;;;8.34;66.86328;95731.83;;;;
2021/10/12 01:54:10;;;;;;;47.65;28.35;;;;;;;8.34;66.86328;95731.83;;;;
2021/10/12 01:55:14;;;;;;;47.65;28.35;;;;;;;8.34;66.86328;95731.83;;;;
2021/10/12 01:56:17;;;;;;;47.65;28.35;;;;;;;8.34;66.86328;95731.83;;;;
2021/10/12 01:57:18;;;;;;;47.65;28.35;;;;;;;8.34;66.86328;95731.83;;;;
2021/10/12 01:58:19;;;;;;;50.4;28.8;;;;;;;8.3;67.73047;95719.83;;;;
2021/10/12 01:59:20;;;;;;;50.4;28.8;;;;;;;8.3;67.73047;95719.83;;;;
2021/10/12 02:00:20;;;;;;;50.4;28.8;;;;;;;8.3;67.73047;95719.83;;;;
2021/10/12 02:01:21;;;;;;;50.4;28.8;;;;;;;8.3;67.73047;95719.83;;;;
2021/10/12 02:02:24;;;;;;;50.4;28.8;;;;;;;8.3;67.73047;95719.83;;;;
2021/10/12 02:03:24;;;;;;;50.4;28.8;;;;;;;8.3;67.73047;95719.83;;;;
2021/10/12 02:04:25;;;;;;;50.4;28.8;;;;;;;8.3;67.73047;95719.83;;;;
2021/10/12 02:05:25;;;;;;;50.4;28.8;;;;;;;8.3;67.73047;95719.83;;;;
2021/10/12 02:06:26;;;;;;;50.4;28.8;;;;;;;8.3;67.73047;95719.83;;;;
2021/10/12 02:07:27;;;;;;;50.4;28.8;;;;;;;8.3;67.73047;95719.83;;;;
2021/10/12 02:08:27;;;;;;;52.05;28.34999;;;;;;;8.25;68.03223;95712.92;;;;
2021/10/12 02:09:28;;;;;;;52.05;28.34999;;;;;;;8.25;68.03223;95712.92;;;;
2021/10/12 02:10:29;;;;;;;52.05;28.34999;;;;;;;8.25;68.03223;95712.92;;;;
2021/10/12 02:11:29;;;;;;;52.05;28.34999;;;;;;;8.25;68.03223;95712.92;;;;
2021/10/12 02:12:30;;;;;;;52.05;28.34999;;;;;;;8.25;68.03223;95712.92;;;;
2021/10/12 02:13:31;;;;;;;52.05;28.34999;;;;;;;8.25;68.03223;95712.92;;;;
2021/10/12 02:14:32;;;;;;;52.05;28.34999;;;;;;;8.25;68.03223;95712.92;;;;
2021/10/12 02:15:32;;;;;;;52.05;28.34999;;;;;;;8.25;68.03223;95712.92;;;;
2021/10/12 02:16:33;;;;;;;52.05;28.34999;;;;;;;8.25;68.03223;95712.92;;;;
2021/10/12 02:17:33;;;;;;;52.05;28.34999;;;;;;;8.25;68.03223;95712.92;;;;
2021/10/12 02:18:34;;;;;;;52.05;28.34999;;;;;;;8.25;68.03223;95712.92;;;;
2021/10/12 02:19:34;;;;;;;55.15;30.45;;;;;;;8.19;68.39648;95697.99;;;;
2021/10/12 02:20:35;;;;;;;55.15;30.45;;;;;;;8.19;68.39648;95697.99;;;;
2021/10/12 02:21:36;;;;;;;55.15;30.45;;;;;;;8.19;68.39648;95697.99;;;;
2021/10/12 02:22:36;;;;;;;55.15;30.45;;;;;;;8.19;68.39648;95697.99;;;;
2021/10/12 02:23:38;;;;;;;55.15;30.45;;;;;;;8.19;68.39648;95697.99;;;;
2021/10/12 02:24:38;;;;;;;55.15;30.45;;;;;;;8.19;68.39648;95697.99;;;;
2021/10/12 02:25:39;;;;;;;55.15;30.45;;;;;;;8.19;68.39648;95697.99;;;;
2021/10/12 02:26:39;;;;;;;55.15;30.45;;;;;;;8.19;68.39648;95697.99;;;;
2021/10/12 02:27:40;;;;;;;55.15;30.45;;;;;;;8.19;68.39648;95697.99;;;;
2021/10/12 02:28:40;;;;;;;55.15;30.45;;;;;;;8.19;68.39648;95697.99;;;;
2021/10/12 02:29:41;;;;;;;50.44999;28.6;;;;;;;8.15;68.93262;95696.34;;;;
2021/10/12 02:30:41;;;;;;;50.44999;28.6;;;;;;;8.15;68.93262;95696.34;;;;
2021/10/12 02:31:42;;;;;;;50.44999;28.6;;;;;;;8.15;68.93262;95696.34;;;;
2021/10/12 02:32:43;;;;;;;50.44999;28.6;;;;;;;8.15;68.93262;95696.34;;;;
2021/10/12 02:33:43;;;;;;;50.44999;28.6;;;;;;;8.15;68.93262;95696.34;;;;
2021/10/12 02:34:44;;;;;;;50.44999;28.6;;;;;;;8.15;68.93262;95696.34;;;;
2021/10/12 02:35:45;;;;;;;50.44999;28.6;;;;;;;8.15;68.93262;95696.34;;;;
2021/10/12 02:36:46;;;;;;;50.44999;28.6;;;;;;;8.15;68.93262;95696.34;;;;
2021/10/12 02:37:46;;;;;;;50.44999;28.6;;;;;;;8.15;68.93262;95696.34;;;;
2021/10/12 02:38:47;;;;;;;50.44999;28.6;;;;;;;8.15;68.93262;95696.34;;;;
2021/10/12 02:39:47;;;;;;;50.44999;28.6;;;;;;;8.15;68.93262;95696.34;;;;
2021/10/12 02:40:49;;;;;;;50.15;28.05;;;;;;;8.13;69.17285;95681.47;;;;
2021/10/12 02:41:49;;;;;;;50.15;28.05;;;;;;;8.13;69.17285;95681.47;;;;
2021/10/12 02:42:50;;;;;;;50.15;28.05;;;;;;;8.13;69.17285;95681.47;;;;
2021/10/12 02:43:51;;;;;;;50.15;28.05;;;;;;;8.13;69.17285;95681.47;;;;
2021/10/12 02:44:51;;;;;;;50.15;28.05;;;;;;;8.13;69.17285;95681.47;;;;
2021/10/12 02:45:52;;;;;;;50.15;28.05;;;;;;;8.13;69.17285;95681.47;;;;
2021/10/12 02:46:53;;;;;;;50.15;28.05;;;;;;;8.13;69.17285;95681.47;;;;
2021/10/12 02:47:53;;;;;;;50.15;28.05;;;;;;;8.13;69.17285;95681.47;;;;
2021/10/12 02:48:54;;;;;;;50.15;28.05;;;;;;;8.13;69.17285;95681.47;;;;
2021/10/12 02:49:54;;;;;;;50.15;28.05;;;;;;;8.13;69.17285;95681.47;;;;
2021/10/12 02:50:55;;;;;;;48.2;26.45;;;;;;;8.09;69.4668;95683.33;;;;
2021/10/12 02:51:55;;;;;;;48.2;26.45;;;;;;;8.09;69.4668;95683.33;;;;
2021/10/12 02:52:56;;;;;;;48.2;26.45;;;;;;;8.09;69.4668;95683.33;;;;
2021/10/12 02:53:56;;;;;;;48.2;26.45;;;;;;;8.09;69.4668;95683.33;;;;
2021/10/12 02:54:57;;;;;;;48.2;26.45;;;;;;;8.09;69.4668;95683.33;;;;
2021/10/12 02:55:59;;;;;;;48.2;26.45;;;;;;;8.09;69.4668;95683.33;;;;
2021/10/12 02:56:59;;;;;;;48.2;26.45;;;;;;;8.09;69.4668;95683.33;;;;
2021/10/12 02:58:00;;;;;;;48.2;26.45;;;;;;;8.09;69.4668;95683.33;;;;
2021/10/12 02:59:00;;;;;;;48.2;26.45;;;;;;;8.09;69.4668;95683.33;;;;
2021/10/12 03:00:01;;;;;;;48.2;26.45;;;;;;;8.09;69.4668;95683.33;;;;
2021/10/12 03:01:05;;;;;;;48.2;26.45;;;;;;;8.09;69.4668;95683.33;;;;
2021/10/12 03:02:05;;;;;;;45.55;26.1;;;;;;;8.11;69.52344;95667.27;;;;
2021/10/12 03:03:06;;;;;;;45.55;26.1;;;;;;;8.11;69.52344;95667.27;;;;
2021/10/12 03:04:08;;;;;;;45.55;26.1;;;;;;;8.11;69.52344;95667.27;;;;
2021/10/12 03:05:08;;;;;;;45.55;26.1;;;;;;;8.11;69.52344;95667.27;;;;
2021/10/12 03:06:09;;;;;;;45.55;26.1;;;;;;;8.11;69.52344;95667.27;;;;
2021/10/12 03:07:11;;;;;;;45.55;26.1;;;;;;;8.11;69.52344;95667.27;;;;
2021/10/12 03:08:11;;;;;;;45.55;26.1;;;;;;;8.11;69.52344;95667.27;;;;
2021/10/12 03:09:12;;;;;;;45.55;26.1;;;;;;;8.11;69.52344;95667.27;;;;
2021/10/12 03:10:13;;;;;;;45.55;26.1;;;;;;;8.11;69.52344;95667.27;;;;
2021/10/12 03:11:13;;;;;;;45.55;26.1;;;;;;;8.11;69.52344;95667.27;;;;
2021/10/12 03:12:14;;;;;;;49.95;27.4;;;;;;;8.14;69.6875;95660.24;;;;
2021/10/12 03:13:15;;;;;;;49.95;27.4;;;;;;;8.14;69.6875;95660.24;;;;
2021/10/12 03:14:15;;;;;;;49.95;27.4;;;;;;;8.14;69.6875;95660.24;;;;
2021/10/12 03:15:16;;;;;;;49.95;27.4;;;;;;;8.14;69.6875;95660.24;;;;
2021/10/12 03:16:16;;;;;;;49.95;27.4;;;;;;;8.14;69.6875;95660.24;;;;
2021/10/12 03:17:17;;;;;;;49.95;27.4;;;;;;;8.14;69.6875;95660.24;;;;
2021/10/12 03:18:17;;;;;;;49.95;27.4;;;;;;;8.14;69.6875;95660.24;;;;
2021/10/12 03:19:18;;;;;;;49.95;27.4;;;;;;;8.14;69.6875;95660.24;;;;
2021/10/12 03:20:21;;;;;;;49.95;27.4;;;;;;;8.14;69.6875;95660.24;;;;
2021/10/12 03:21:22;;;;;;;49.95;27.4;;;;;;;8.14;69.6875;95660.24;;;;
2021/10/12 03:22:23;;;;;;;49.95;27.4;;;;;;;8.14;69.6875;95660.24;;;;
2021/10/12 03:23:23;;;;;;;48.05;26.6;;;;;;;8.15;69.84766;95653.85;;;;
2021/10/12 03:24:24;;;;;;;48.05;26.6;;;;;;;8.15;69.84766;95653.85;;;;
2021/10/12 03:25:24;;;;;;;48.05;26.6;;;;;;;8.15;69.84766;95653.85;;;;
2021/10/12 03:26:25;;;;;;;48.05;26.6;;;;;;;8.15;69.84766;95653.85;;;;
2021/10/12 03:27:26;;;;;;;48.05;26.6;;;;;;;8.15;69.84766;95653.85;;;;
2021/10/12 03:28:26;;;;;;;48.05;26.6;;;;;;;8.15;69.84766;95653.85;;;;
2021/10/12 03:29:27;;;;;;;48.05;26.6;;;;;;;8.15;69.84766;95653.85;;;;
2021/10/12 03:30:27;;;;;;;48.05;26.6;;;;;;;8.15;69.84766;95653.85;;;;
2021/10/12 03:31:28;;;;;;;48.05;26.6;;;;;;;8.15;69.84766;95653.85;;;;
2021/10/12 03:32:28;;;;;;;48.05;26.6;;;;;;;8.15;69.84766;95653.85;;;;
2021/10/12 03:33:29;;;;;;;45.90001;25.9;;;;;;;8.2;70.29492;95636.42;;;;
2021/10/12 03:34:29;;;;;;;45.90001;25.9;;;;;;;8.2;70.29492;95636.42;;;;
2021/10/12 03:35:32;;;;;;;45.90001;25.9;;;;;;;8.2;70.29492;95636.42;;;;
2021/10/12 03:36:33;;;;;;;45.90001;25.9;;;;;;;8.2;70.29492;95636.42;;;;
2021/10/12 03:37:33;;;;;;;45.90001;25.9;;;;;;;8.2;70.29492;95636.42;;;;
2021/10/12 03:38:34;;;;;;;45.90001;25.9;;;;;;;8.2;70.29492;95636.42;;;;
2021/10/12 03:39:34;;;;;;;45.90001;25.9;;;;;;;8.2;70.29492;95636.42;;;;
2021/10/12 03:40:35;;;;;;;45.90001;25.9;;;;;;;8.2;70.29492;95636.42;;;;
2021/10/12 03:41:35;;;;;;;45.90001;25.9;;;;;;;8.2;70.29492;95636.42;;;;
2021/10/12 03:42:36;;;;;;;45.90001;25.9;;;;;;;8.2;70.29492;95636.42;;;;
2021/10/12 03:43:36;;;;;;;45.90001;25.9;;;;;;;8.2;70.29492;95636.42;;;;
2021/10/12 03:44:37;;;;;;;47.25;25.9;;;;;;;8.19;70.49414;95615.12;;;;
2021/10/12 03:45:38;;;;;;;47.25;25.9;;;;;;;8.19;70.49414;95615.12;;;;
2021/10/12 03:46:38;;;;;;;47.25;25.9;;;;;;;8.19;70.49414;95615.12;;;;
2021/10/12 03:47:39;;;;;;;47.25;25.9;;;;;;;8.19;70.49414;95615.12;;;;
2021/10/12 03:48:39;;;;;;;47.25;25.9;;;;;;;8.19;70.49414;95615.12;;;;
2021/10/12 03:49:40;;;;;;;47.25;25.9;;;;;;;8.19;70.49414;95615.12;;;;
2021/10/12 03:50:40;;;;;;;47.25;25.9;;;;;;;8.19;70.49414;95615.12;;;;
2021/10/12 03:51:43;;;;;;;47.25;25.9;;;;;;;8.19;70.49414;95615.12;;;;
2021/10/12 03:52:43;;;;;;;47.25;25.9;;;;;;;8.19;70.49414;95615.12;;;;
2021/10/12 03:53:44;;;;;;;47.25;25.9;;;;;;;8.19;70.49414;95615.12;;;;
2021/10/12 03:54:45;;;;;;;48.35;25.85;;;;;;;8.06;70.88965;95606.17;;;;
2021/10/12 03:55:45;;;;;;;48.35;25.85;;;;;;;8.06;70.88965;95606.17;;;;
2021/10/12 03:56:45;;;;;;;48.35;25.85;;;;;;;8.06;70.88965;95606.17;;;;
2021/10/12 03:57:46;;;;;;;48.35;25.85;;;;;;;8.06;70.88965;95606.17;;;;
2021/10/12 03:58:47;;;;;;;48.35;25.85;;;;;;;8.06;70.88965;95606.17;;;;
2021/10/12 03:59:48;;;;;;;48.35;25.85;;;;;;;8.06;70.88965;95606.17;;;;
2021/10/12 04:00:48;;;;;;;48.35;25.85;;;;;;;8.06;70.88965;95606.17;;;;
2021/10/12 04:01:49;;;;;;;48.35;25.85;;;;;;;8.06;70.88965;95606.17;;;;
2021/10/12 04:02:49;;;;;;;48.35;25.85;;;;;;;8.06;70.88965;95606.17;;;;
2021/10/12 04:03:52;;;;;;;48.35;25.85;;;;;;;8.06;70.88965;95606.17;;;;
2021/10/12 04:04:52;;;;;;;48.35;25.85;;;;;;;8.06;70.88965;95606.17;;;;
2021/10/12 04:05:53;;;;;;;47.15;24.40001;;;;;;;7.89;71.27734;95605;;;;
2021/10/12 04:06:53;;;;;;;47.15;24.40001;;;;;;;7.89;71.27734;95605;;;;
2021/10/12 04:07:54;;;;;;;47.15;24.40001;;;;;;;7.89;71.27734;95605;;;;
2021/10/12 04:08:54;;;;;;;47.15;24.40001;;;;;;;7.89;71.27734;95605;;;;
2021/10/12 04:09:55;;;;;;;47.15;24.40001;;;;;;;7.89;71.27734;95605;;;;
2021/10/12 04:10:56;;;;;;;47.15;24.40001;;;;;;;7.89;71.27734;95605;;;;
2021/10/12 04:11:56;;;;;;;47.15;24.40001;;;;;;;7.89;71.27734;95605;;;;
2021/10/12 04:12:57;;;;;;;47.15;24.40001;;;;;;;7.89;71.27734;95605;;;;
2021/10/12 04:13:57;;;;;;;47.15;24.40001;;;;;;;7.89;71.27734;95605;;;;
2021/10/12 04:14:58;;;;;;;47.15;24.40001;;;;;;;7.89;71.27734;95605;;;;
2021/10/12 04:15:58;;;;;;;47.15;24.40001;;;;;;;7.89;71.27734;95605;;;;
2021/10/12 04:16:59;;;;;;;47.5;24.45;;;;;;;7.85;71.53516;95586.71;;;;
2021/10/12 04:17:59;;;;;;;47.5;24.45;;;;;;;7.85;71.53516;95586.71;;;;
2021/10/12 04:19:01;;;;;;;47.5;24.45;;;;;;;7.85;71.53516;95586.71;;;;
2021/10/12 04:20:01;;;;;;;47.5;24.45;;;;;;;7.85;71.53516;95586.71;;;;
2021/10/12 04:21:03;;;;;;;47.5;24.45;;;;;;;7.85;71.53516;95586.71;;;;
2021/10/12 04:22:03;;;;;;;47.5;24.45;;;;;;;7.85;71.53516;95586.71;;;;
2021/10/12 04:23:08;;;;;;;47.5;24.45;;;;;;;7.85;71.53516;95586.71;;;;
2021/10/12 04:24:09;;;;;;;47.5;24.45;;;;;;;7.85;71.53516;95586.71;;;;
2021/10/12 04:25:09;;;;;;;47.5;24.45;;;;;;;7.85;71.53516;95586.71;;;;
2021/10/12 04:26:12;;;;;;;47.5;24.45;;;;;;;7.85;71.53516;95586.71;;;;
2021/10/12 04:27:13;;;;;;;47.5;24.45;;;;;;;7.85;71.53516;95586.71;;;;
2021/10/12 04:28:13;;;;;;;47.5;24.45;;;;;;;7.85;71.53516;95586.71;;;;
2021/10/12 04:29:14;;;;;;;47.5;24.45;;;;;;;7.85;71.53516;95586.71;;;;
2021/10/12 04:30:15;;;;;;;47.5;24.45;;;;;;;7.85;71.53516;95586.71;;;;
2021/10/12 04:31:15;;;;;;;47.5;24.45;;;;;;;7.85;71.53516;95586.71;;;;
2021/10/12 04:32:16;;;;;;;47.5;24.45;;;;;;;7.85;71.53516;95586.71;;;;
2021/10/12 04:33:16;;;;;;;47.5;24.45;;;;;;;7.85;71.53516;95586.71;;;;
2021/10/12 04:34:17;;;;;;;47.5;24.45;;;;;;;7.85;71.53516;95586.71;;;;
2021/10/12 04:35:17;;;;;;;47.5;24.45;;;;;;;7.85;71.53516;95586.71;;;;
2021/10/12 04:36:18;;;;;;;47.5;24.45;;;;;;;7.85;71.53516;95586.71;;;;
2021/10/12 04:37:20;;;;;;;47.5;24.45;;;;;;;7.85;71.53516;95586.71;;;;
2021/10/12 04:38:20;;;;;;;47.5;24.45;;;;;;;7.85;71.53516;95586.71;;;;
2021/10/12 04:39:21;;;;;;;47.5;24.45;;;;;;;7.85;71.53516;95586.71;;;;
2021/10/12 04:40:23;;;;;;;47.5;24.45;;;;;;;7.85;71.53516;95586.71;;;;
2021/10/12 04:41:23;;;;;;;47.5;24.45;;;;;;;7.85;71.53516;95586.71;;;;
2021/10/12 04:42:24;;;;;;;47.5;24.45;;;;;;;7.85;71.53516;95586.71;;;;
2021/10/12 04:43:25;;;;;;;47.5;24.45;;;;;;;7.85;71.53516;95586.71;;;;
2021/10/12 04:44:25;;;;;;;47.5;24.45;;;;;;;7.85;71.53516;95586.71;;;;
2021/10/12 04:45:27;;;;;;;47.5;24.45;;;;;;;7.85;71.53516;95586.71;;;;
2021/10/12 04:46:27;;;;;;;47.5;24.45;;;;;;;7.85;71.53516;95586.71;;;;
2021/10/12 04:47:28;;;;;;;47.5;24.45;;;;;;;7.85;71.53516;95586.71;;;;
2021/10/12 04:48:29;;;;;;;42.94999;23.35;;;;;;;7.92;71.97363;95543.56;;;;
2021/10/12 04:49:29;;;;;;;42.94999;23.35;;;;;;;7.92;71.97363;95543.56;;;;
2021/10/12 04:50:30;;;;;;;42.94999;23.35;;;;;;;7.92;71.97363;95543.56;;;;
2021/10/12 04:51:30;;;;;;;42.94999;23.35;;;;;;;7.92;71.97363;95543.56;;;;
2021/10/12 04:52:31;;;;;;;42.94999;23.35;;;;;;;7.92;71.97363;95543.56;;;;
2021/10/12 04:53:32;;;;;;;42.94999;23.35;;;;;;;7.92;71.97363;95543.56;;;;
2021/10/12 04:54:32;;;;;;;42.94999;23.35;;;;;;;7.92;71.97363;95543.56;;;;
2021/10/12 04:55:33;;;;;;;42.94999;23.35;;;;;;;7.92;71.97363;95543.56;;;;
2021/10/12 04:56:33;;;;;;;42.94999;23.35;;;;;;;7.92;71.97363;95543.56;;;;
2021/10/12 04:57:34;;;;;;;42.94999;23.35;;;;;;;7.92;71.97363;95543.56;;;;
2021/10/12 04:58:34;;;;;;;42.94999;23.35;;;;;;;7.92;71.97363;95543.56;;;;
2021/10/12 04:59:35;;;;;;;42.99999;22.3;;;;;;;7.85;72.17383;95535.64;;;;
2021/10/12 05:00:35;;;;;;;42.99999;22.3;;;;;;;7.85;72.17383;95535.64;;;;
2021/10/12 05:01:37;;;;;;;42.99999;22.3;;;;;;;7.85;72.17383;95535.64;;;;
2021/10/12 05:02:37;;;;;;;42.99999;22.3;;;;;;;7.85;72.17383;95535.64;;;;
2021/10/12 05:03:38;;;;;;;42.99999;22.3;;;;;;;7.85;72.17383;95535.64;;;;
2021/10/12 05:04:38;;;;;;;42.99999;22.3;;;;;;;7.85;72.17383;95535.64;;;;
2021/10/12 05:05:39;;;;;;;42.99999;22.3;;;;;;;7.85;72.17383;95535.64;;;;
2021/10/12 05:06:39;;;;;;;42.99999;22.3;;;;;;;7.85;72.17383;95535.64;;;;
2021/10/12 05:07:40;;;;;;;42.99999;22.3;;;;;;;7.85;72.17383;95535.64;;;;
2021/10/12 05:08:41;;;;;;;42.99999;22.3;;;;;;;7.85;72.17383;95535.64;;;;
2021/10/12 05:09:41;;;;;;;46.7;22.65;;;;;;;7.77;72.52344;95538.16;;;;
2021/10/12 05:10:42;;;;;;;46.7;22.65;;;;;;;7.77;72.52344;95538.16;;;;
2021/10/12 05:11:43;;;;;;;46.7;22.65;;;;;;;7.77;72.52344;95538.16;;;;
2021/10/12 05:12:43;;;;;;;46.7;22.65;;;;;;;7.77;72.52344;95538.16;;;;
2021/10/12 05:13:44;;;;;;;46.7;22.65;;;;;;;7.77;72.52344;95538.16;;;;
2021/10/12 05:14:44;;;;;;;46.7;22.65;;;;;;;7.77;72.52344;95538.16;;;;
2021/10/12 05:15:46;;;;;;;46.7;22.65;;;;;;;7.77;72.52344;95538.16;;;;
2021/10/12 05:16:50;;;;;;;46.7;22.65;;;;;;;7.77;72.52344;95538.16;;;;
2021/10/12 05:17:50;;;;;;;46.7;22.65;;;;;;;7.77;72.52344;95538.16;;;;
2021/10/12 05:18:54;;;;;;;46.7;22.65;;;;;;;7.77;72.52344;95538.16;;;;
2021/10/12 05:19:55;;;;;;;46.7;22.65;;;;;;;7.77;72.52344;95538.16;;;;
2021/10/12 05:20:55;;;;;;;42.15;22.1;;;;;;;7.75;72.77539;95543.72;;;;
2021/10/12 05:21:56;;;;;;;42.15;22.1;;;;;;;7.75;72.77539;95543.72;;;;
2021/10/12 05:22:56;;;;;;;42.15;22.1;;;;;;;7.75;72.77539;95543.72;;;;
2021/10/12 05:23:57;;;;;;;42.15;22.1;;;;;;;7.75;72.77539;95543.72;;;;
2021/10/12 05:24:58;;;;;;;42.15;22.1;;;;;;;7.75;72.77539;95543.72;;;;
2021/10/12 05:25:58;;;;;;;42.15;22.1;;;;;;;7.75;72.77539;95543.72;;;;
2021/10/12 05:26:59;;;;;;;42.15;22.1;;;;;;;7.75;72.77539;95543.72;;;;
2021/10/12 05:28:00;;;;;;;42.15;22.1;;;;;;;7.75;72.77539;95543.72;;;;
2021/10/12 05:29:01;;;;;;;42.15;22.1;;;;;;;7.75;72.77539;95543.72;;;;
2021/10/12 05:30:02;;;;;;;42.15;22.1;;;;;;;7.75;72.77539;95543.72;;;;
2021/10/12 05:31:04;;;;;;;38.75;21.2;;;;;;;7.79;72.80469;95542.27;;;;
2021/10/12 05:32:04;;;;;;;38.75;21.2;;;;;;;7.79;72.80469;95542.27;;;;
2021/10/12 05:33:05;;;;;;;38.75;21.2;;;;;;;7.79;72.80469;95542.27;;;;
2021/10/12 05:34:07;;;;;;;38.75;21.2;;;;;;;7.79;72.80469;95542.27;;;;
2021/10/12 05:35:07;;;;;;;38.75;21.2;;;;;;;7.79;72.80469;95542.27;;;;
2021/10/12 05:36:09;;;;;;;38.75;21.2;;;;;;;7.79;72.80469;95542.27;;;;
2021/10/12 05:37:09;;;;;;;38.75;21.2;;;;;;;7.79;72.80469;95542.27;;;;
2021/10/12 05:38:10;;;;;;;38.75;21.2;;;;;;;7.79;72.80469;95542.27;;;;
2021/10/12 05:39:10;;;;;;;38.75;21.2;;;;;;;7.79;72.80469;95542.27;;;;
2021/10/12 05:41:31;;;;;;;44.15;23.6;;;;;;;7.79;72.96191;95549.91;;;;